• Join FlightAware (Why Join?)
  • Login
  • US Flag 
06:17AM EDT


 

Airport Tracker/Info


-or-


 

Live Flight TrackerFlight Track Log ✈ RPA3228 ✈ 05-Nov-2013 ✈ KBNA - KDCA

Flight Track Log - Related Links

Times and Time Zones

All times are in EST time to prevent confusion due to time zone crossing. See the RPA3228 flight status page for this flight to view local times or setup timezone preferences in your user account.

Time Position Orientation Groundspeed Altitude Reporting Facility
EST Latitude Longitude Course Direction KTS MPH feet Rate Location/Type
07:04AM 36.1167 -86.6833 58° Northeast 143 165 1,600  Level Nashville TRACON
07:04AM 36.0833 -86.6500 141° Southeast 194 223 3,500 2,760 Climbing Nashville TRACON
07:06AM 36.1000 -86.5500 78° East 287 330 7,200 3,000 Climbing Nashville TRACON
07:07AM 36.1278 -86.4331 74° East 308 354 11,300 2,820 Climbing Memphis Center
07:08AM 36.1492 -86.3242 76° East 314 361 14,000 2,700 Climbing Memphis Center
07:09AM 36.3520 -85.9910 58° Northeast  Level Estimated
07:09AM 36.1725 -86.2072 76° East 334 384 16,700  Level Memphis Center
07:10AM 36.1994 -86.0825 75° East 359 413 18,700 2,100 Climbing Memphis Center
07:11AM 36.2494 -85.9614 63° Northeast 376 433 20,900 2,100 Climbing Memphis Center
07:13AM 36.3378 -85.7617 61° Northeast 408 470 24,400 1,980 Climbing Indianapolis Center
07:14AM 36.4000 -85.6344 59° Northeast 423 487 26,200 1,740 Climbing Indianapolis Center
07:15AM 36.4647 -85.4986 59° Northeast 445 512 28,000 1,740 Climbing Indianapolis Center
07:16AM 36.5294 -85.3597 60° Northeast 458 527 29,800 1,740 Climbing Indianapolis Center
07:17AM 36.5944 -85.2219 60° Northeast 460 529 31,600 1,560 Climbing Indianapolis Center
07:18AM 36.6469 -85.0708 67° East 471 542 33,000 660 Climbing Indianapolis Center
07:19AM 36.7042 -84.8875 69° East 471 542 33,000  Level Indianapolis Center
07:20AM 36.7508 -84.7356 69° East 470 541 33,000  Level Indianapolis Center
07:21AM 36.7958 -84.5828 70° East 468 539 33,000  Level Indianapolis Center
07:22AM 36.8428 -84.4300 69° East 470 541 33,000  Level Indianapolis Center
07:23AM 36.8881 -84.2775 70° East 468 539 33,000  Level Indianapolis Center
07:24AM 36.9336 -84.1256 69° East 467 537 33,000  Level Indianapolis Center
07:25AM 36.9792 -83.9725 70° East 469 540 33,000  Level Indianapolis Center
07:26AM 37.0258 -83.8200 69° East 469 540 33,000  Level Indianapolis Center
07:27AM 37.0717 -83.6658 70° East 476 548 33,000  Level Indianapolis Center
07:28AM 37.1161 -83.5133 70° East 468 539 33,000  Level Indianapolis Center
07:29AM 37.1600 -83.3592 70° East 467 537 33,000  Level Indianapolis Center
07:30AM 37.2056 -83.2044 70° East 470 541 33,000  Level Indianapolis Center
07:31AM 37.2503 -83.0494 70° East 469 540 33,000  Level Indianapolis Center
07:32AM 37.3011 -82.8678 71° East 468 539 33,000  Level Indianapolis Center
07:33AM 37.3461 -82.7122 70° East 469 540 33,000  Level Indianapolis Center
07:34AM 37.3892 -82.5572 71° East 467 537 33,000  Level Indianapolis Center
07:35AM 37.4319 -82.4022 71° East 467 537 33,000  Level Indianapolis Center
07:37AM 37.4828 -82.2014 72° East  Level FlightAware Approximate
07:37AM 37.5197 -82.0939 72° East 465 535 33,000  Level Indianapolis Center
07:38AM 37.5617 -81.9400 71° East 465 535 33,000  Level Indianapolis Center
07:39AM 37.6039 -81.7850 71° East 465 535 33,000  Level Indianapolis Center
07:40AM 37.6461 -81.6317 71° East 463 533 33,000  Level Indianapolis Center
07:41AM 37.6867 -81.4797 71° East 465 535 33,000  Level Indianapolis Center
07:42AM 37.7344 -81.2983 72° East 465 535 33,000  Level Indianapolis Center
07:43AM 37.7736 -81.1483 72° East 462 532 33,000  Level Indianapolis Center
07:44AM 37.8261 -80.9989 66° East 461 531 33,000  Level Indianapolis Center
07:45AM 37.8775 -80.8503 66° East 462 532 33,000  Level Indianapolis Center
07:46AM 37.9300 -80.7036 66° East 460 529 33,000  Level Indianapolis Center
07:47AM 37.9811 -80.5558 66° East 459 528 33,000  Level Indianapolis Center
07:48AM 38.0111 -80.4808 63° Northeast 451 519 33,000  Level Washington Center
07:49AM 38.0725 -80.3028 66° East 474 545 33,000  Level Washington Center
07:50AM 38.1331 -80.1403 65° Northeast 492 566 33,000 -120 Level Washington Center
07:51AM 38.1892 -79.9772 66° East 497 572 32,800 -960 Descending Washington Center
07:52AM 38.2469 -79.8142 66° East 497 572 31,100 -1,620 Descending Washington Center
07:53AM 38.3050 -79.6481 66° East 497 572 29,600 -1,200 Descending Washington Center
07:54AM 38.3625 -79.4817 66° East 502 578 28,700 -840 Descending Washington Center
07:55AM 38.4131 -79.3333 66° East 507 583 28,000 -360 Descending Washington Center
07:56AM 38.4519 -79.1575 74° East 507 583 28,000 -240 Level Washington Center
07:57AM 38.4819 -78.9786 78° East 502 578 27,600 -1,380 Descending Washington Center
07:58AM 38.5078 -78.8019 79° East 514 592 25,300 -2,460 Descending Washington Center
07:59AM 38.5353 -78.6308 78° East 501 577 22,700 -1,920 Descending Washington Center
08:00AM 38.5600 -78.4697 79° East 482 555 21,600 -1,380 Descending Washington Center
08:01AM 38.5842 -78.3219 78° East 453 521 20,100 -1,740 Descending Washington Center
08:02AM 38.6208 -78.1772 72° East 432 497 18,100 -1,920 Descending Washington Center
08:03AM 38.6611 -78.0483 68° East 407 468 16,300 -1,860 Descending Washington Center
08:04AM 38.7011 -77.9247 67° East 388 447 14,500 -1,800 Descending Washington Center
08:05AM 38.7406 -77.8167 65° Northeast 360 414 12,800 -1,560 Descending Washington Center
08:06AM 38.7983 -77.7333 48° Northeast 327 376 11,500 -1,260 Descending Washington Center
08:07AM 38.8439 -77.6439 57° Northeast 295 339 10,300 -1,320 Descending Washington Center
08:08AM 38.8833 -77.5333 65° Northeast 297 342 9,000 -1,260 Descending Potomac TRACON
08:09AM 38.9000 -77.4500 76° East 295 339 8,000 -1,260 Descending Potomac TRACON
08:10AM 38.8667 -77.3667 117° Southeast 277 319 6,700 -1,020 Descending Potomac TRACON
08:11AM 38.8333 -77.2833 117° Southeast 262 302 6,000 -840 Descending Potomac TRACON
08:12AM 38.8000 -77.2167 123° Southeast 229 264 5,100 -960 Descending Potomac TRACON
08:13AM 38.7667 -77.1333 117° Southeast 212 244 4,100 -600 Descending Potomac TRACON
08:14AM 38.7333 -77.1167 159° South 202 232 3,900 -840 Descending Potomac TRACON
08:15AM 38.6667 -77.1000 169° South 214 246 2,500 -840 Descending Potomac TRACON
08:16AM 38.7000 -77.0500 49° Northeast 188 216 2,400 -480 Descending Potomac TRACON
08:17AM 38.7333 -77.0333 21° North 172 198 1,600 -600 Descending Potomac TRACON
08:18AM 38.7833 -77.0333 360° North 155 178 1,200 -600 Descending Potomac TRACON
08:19AM 38.8167 -77.0333 360° North 124 143 400 -840 Descending Potomac TRACON